Elizabeth, West Virginia
Current Conditions -  °F | °C
As of 1:53 AM on Tuesday 21 Oct 2014 (Local Time) from KPKB Reporting Station
Broken Clouds Broken Clouds  
Wind Chill: 51°   Ceiling: 6500
Heat Index: 51°   Visibility: 10mi
Dew Point: 47°   Wind: 5mph
Humidity: 86%   Direction: 270°W
Pressure: 29.91"   Gusts: NA
Location:  39.06°N, 81.4°W
Report Text: KPKB 210553Z AUTO 27004KT 10SM BKN065 11/08 A2991 RMK AO2 SLP128 60002 T01060083 10117 20094 56004
Loading
Personal Weather Stations






























Interactive Weather Map New forecast layout! Learn more

10-Day Weather Forecast

Advertisements
Track Severe Weather on mobile